• Join FlightAware (Why Join?)
  • Login
  • US Flag 
07:30PM EDT


 

Airport Tracker/Info


-or-


 

Live Flight TrackerFlight Track Log ✈ KLM765 ✈ 30-Apr-2013 ✈ TNCA / AUA - TNCB / BON

Flight Track Log - Related Links

Times and Time Zones

All times are in EDT time to prevent confusion due to time zone crossing. See the KLM765 flight status page for this flight to view local times or setup timezone preferences in your user account.

Time Position Orientation Groundspeed Altitude Reporting Facility
EDT Latitude Longitude Course Direction KTS MPH feet Rate Location/Type
05:58PM 12.3858 -69.4638 102° East  Level Estimated
05:59PM 12.3790 -69.4314 102° East  Level Estimated
06:00PM 12.3721 -69.3990 102° East  Level Estimated
06:01PM 12.3653 -69.3665 102° East  Level Estimated
06:02PM 12.3521 -69.3040 102° East  Level Estimated
06:03PM 12.3389 -69.2415 102° East  Level Estimated
06:04PM 12.3256 -69.1790 102° East  Level Estimated
06:05PM 12.3124 -69.1165 102° East  Level Estimated
06:06PM 12.2991 -69.0540 102° East  Level Estimated
06:07PM 12.2858 -68.9916 102° East  Level Estimated
06:08PM 12.2725 -68.9291 102° East  Level Estimated
06:09PM 12.2592 -68.8666 102° East  Level Estimated
06:10PM 12.2459 -68.8042 102° East  Level Estimated
06:11PM 12.2326 -68.7417 102° East  Level Estimated
06:12PM 12.2192 -68.6792 102° East  Level Estimated
06:13PM 12.2059 -68.6168 102° East  Level Estimated
06:14PM 12.1925 -68.5544 102° East  Level Estimated
06:15PM 12.1791 -68.4919 102° East  Level Estimated
06:16PM 12.1652 -68.4272 102° East  Level Estimated
06:17PM 12.1513 -68.3624 102° East  Level Estimated
06:18PM 12.1373 -68.2977 102° East  Level Estimated
06:19PM 12.1310 -68.2685 102° East  Level Estimated
06:20PM 12.1310 -68.2685 346° North  Level Estimated
06:21PM 12.1310 -68.2685 346° North  Level Estimated
06:22PM 12.1310 -68.2685 346° North  Level Estimated
06:23PM 12.1310 -68.2685 346° North  Level Estimated
06:24PM 12.1310 -68.2685 346° North  Level Estimated